createdAt,value
2023-01-04T00:02:03.784Z,98814.00
2023-01-04T00:06:07.086Z,98817.00
2023-01-04T00:10:08.509Z,98808.00
2023-01-04T00:14:10.799Z,98805.00
2023-01-04T00:18:13.554Z,98785.00
2023-01-04T00:22:14.559Z,98782.00
2023-01-04T00:26:18.936Z,98782.00
2023-01-04T00:30:20.146Z,98773.00
2023-01-04T00:34:21.188Z,98779.00
2023-01-04T00:38:22.411Z,98771.00
2023-01-04T00:42:23.678Z,98770.00
2023-01-04T00:46:24.747Z,98764.00
2023-01-04T00:50:25.770Z,98744.00
2023-01-04T00:54:26.986Z,98760.00
2023-01-04T00:58:28.143Z,98739.00
2023-01-04T01:02:29.544Z,98731.00
2023-01-04T01:06:32.927Z,98721.00
2023-01-04T01:10:34.026Z,98719.00
2023-01-04T01:14:35.027Z,98710.00
2023-01-04T01:18:38.380Z,98699.00
2023-01-04T01:22:39.609Z,98687.00
2023-01-04T01:26:41.094Z,98694.00
2023-01-04T01:30:43.125Z,98699.00
2023-01-04T01:34:44.184Z,98689.00
2023-01-04T01:38:45.504Z,98684.00
2023-01-04T01:42:46.659Z,98678.00
2023-01-04T01:46:51.529Z,98666.00
2023-01-04T01:50:58.916Z,98671.00
2023-01-04T01:55:03.742Z,98680.00
2023-01-04T01:59:06.488Z,98653.00
2023-01-04T02:03:16.473Z,98656.00
2023-01-04T02:07:24.179Z,98651.00
2023-01-04T02:11:26.327Z,98634.00
2023-01-04T02:15:30.247Z,98630.00
2023-01-04T02:19:54.624Z,98635.00
2023-01-04T02:24:07.905Z,98632.00
2023-01-04T02:28:12.730Z,98618.00
2023-01-04T02:32:29.588Z,98609.00
2023-01-04T02:36:37.360Z,98625.00
2023-01-04T02:40:51.049Z,98634.00
2023-01-04T02:44:58.940Z,98621.00
2023-01-04T02:49:20.123Z,98610.00
2023-01-04T02:53:36.658Z,98608.00
2023-01-04T02:57:47.956Z,98597.00
2023-01-04T03:02:31.416Z,98582.00
2023-01-04T03:06:42.310Z,98579.00
2023-01-04T03:11:10.372Z,98579.00
2023-01-04T03:15:24.252Z,98568.00
2023-01-04T03:19:45.264Z,98565.00
2023-01-04T03:24:07.605Z,98561.00
2023-01-04T03:28:29.771Z,98555.00
2023-01-04T03:33:08.655Z,98560.00
2023-01-04T03:37:22.681Z,98552.00
2023-01-04T03:41:46.371Z,98538.00
2023-01-04T03:46:12.517Z,98525.00
2023-01-04T03:50:23.358Z,98513.00
2023-01-04T03:54:34.071Z,98499.00
2023-01-04T03:58:35.829Z,98503.00
2023-01-04T04:02:38.899Z,98494.00
2023-01-04T04:06:58.342Z,98483.00
2023-01-04T04:11:19.846Z,98484.00
2023-01-04T04:15:20.904Z,98481.00
2023-01-04T04:19:22.159Z,98457.00
2023-01-04T04:23:23.313Z,98458.00
2023-01-04T04:27:24.437Z,98432.00
2023-01-04T04:31:25.400Z,98438.00
2023-01-04T04:35:26.543Z,98439.00
2023-01-04T04:39:27.646Z,98430.00
2023-01-04T04:43:28.716Z,98417.00
2023-01-04T04:47:29.674Z,98409.00
2023-01-04T04:51:30.942Z,98423.00
2023-01-04T04:55:31.864Z,98415.00
2023-01-04T04:59:33.226Z,98405.00
2023-01-04T05:03:35.098Z,98404.00
2023-01-04T05:07:36.196Z,98410.00
2023-01-04T05:11:55.621Z,98409.00
2023-01-04T05:15:56.577Z,98403.00
2023-01-04T05:19:57.648Z,98392.00
2023-01-04T05:23:58.591Z,98405.00
2023-01-04T05:28:00.102Z,98383.00
2023-01-04T05:32:01.103Z,98378.00
2023-01-04T05:36:03.573Z,98368.00
2023-01-04T05:40:05.067Z,98363.00
2023-01-04T05:44:06.161Z,98372.00
2023-01-04T05:48:07.368Z,98380.00
2023-01-04T05:52:08.669Z,98364.00
2023-01-04T05:56:09.992Z,98347.00
2023-01-04T06:00:13.123Z,98357.00
2023-01-04T06:04:14.257Z,98373.00
2023-01-04T06:08:15.594Z,98372.00
2023-01-04T06:12:16.767Z,98359.00
2023-01-04T06:16:17.729Z,98360.00
2023-01-04T06:20:19.113Z,98362.00
2023-01-04T06:24:20.048Z,98359.00
2023-01-04T06:28:21.008Z,98338.00
2023-01-04T06:32:22.013Z,98335.00
2023-01-04T06:36:22.956Z,98323.00
2023-01-04T06:40:24.064Z,98309.00
2023-01-04T06:44:25.026Z,98301.00
2023-01-04T06:48:26.135Z,98303.00
2023-01-04T06:52:27.799Z,98298.00
2023-01-04T06:56:30.280Z,98326.00
2023-01-04T07:00:31.336Z,98330.00
2023-01-04T07:04:32.543Z,98320.00
2023-01-04T07:08:34.624Z,98305.00
2023-01-04T07:12:37.601Z,98304.00
2023-01-04T07:16:40.446Z,98285.00
2023-01-04T07:20:41.564Z,98296.00
2023-01-04T07:24:43.232Z,98291.00
2023-01-04T07:29:02.710Z,98279.00
2023-01-04T07:33:03.665Z,98267.00
2023-01-04T07:37:08.454Z,98278.00
2023-01-04T07:41:09.558Z,98290.00
2023-01-04T07:45:11.104Z,98300.00
2023-01-04T07:49:17.861Z,98313.00
2023-01-04T07:53:18.174Z,98306.00
2023-01-04T07:57:19.306Z,98317.00
2023-01-04T08:01:20.354Z,98329.00
2023-01-04T08:05:23.599Z,98322.00
2023-01-04T08:09:24.697Z,98316.00
2023-01-04T08:13:26.574Z,98305.00
2023-01-04T08:17:27.683Z,98313.00
2023-01-04T08:21:30.693Z,98291.00
2023-01-04T08:25:32.218Z,98301.00
2023-01-04T08:29:35.177Z,98303.00
2023-01-04T08:33:40.898Z,98311.00
2023-01-04T08:37:41.984Z,98300.00
2023-01-04T08:42:14.330Z,98292.00
2023-01-04T08:46:06.405Z,98297.00
2023-01-04T08:50:10.801Z,98274.00
2023-01-04T08:54:11.856Z,98299.00
2023-01-04T08:58:13.002Z,98271.00
2023-01-04T09:02:25.842Z,98305.00
2023-01-04T09:06:28.233Z,98296.00
2023-01-04T09:10:29.262Z,98294.00
2023-01-04T09:14:30.478Z,98283.00
2023-01-04T09:18:32.776Z,98279.00
2023-01-04T09:22:34.211Z,98273.00
2023-01-04T09:26:35.322Z,98267.00
2023-01-04T09:30:36.493Z,98273.00
2023-01-04T09:34:39.360Z,98269.00
2023-01-04T09:38:40.840Z,98283.00
2023-01-04T09:43:21.081Z,98288.00
2023-01-04T09:47:01.459Z,98283.00
2023-01-04T09:51:05.929Z,98290.00
2023-01-04T09:55:39.051Z,98266.00
2023-01-04T09:59:15.852Z,98273.00
2023-01-04T10:03:21.055Z,98279.00
2023-01-04T10:07:29.222Z,98269.00
2023-01-04T10:11:43.312Z,98278.00
2023-01-04T10:16:06.374Z,98279.00
2023-01-04T10:24:52.653Z,98263.00
2023-01-04T10:29:31.184Z,98245.00
2023-01-04T10:33:48.076Z,98243.00
2023-01-04T10:37:55.657Z,98248.00
2023-01-04T10:42:17.185Z,98236.00
2023-01-04T10:46:34.128Z,98221.00
2023-01-04T10:51:09.276Z,98219.00
2023-01-04T10:55:08.819Z,98221.00
2023-01-04T10:59:20.572Z,98228.00
2023-01-04T11:03:28.443Z,98223.00
2023-01-04T11:07:42.631Z,98214.00
2023-01-04T11:11:45.888Z,98196.00
2023-01-04T11:15:47.504Z,98223.00
2023-01-04T11:19:48.964Z,98215.00
2023-01-04T11:23:49.989Z,98225.00
2023-01-04T11:27:58.133Z,98213.00
2023-01-04T11:32:21.217Z,98205.00
2023-01-04T11:36:35.081Z,98195.00
2023-01-04T11:40:36.185Z,98191.00
2023-01-04T11:44:37.172Z,98184.00
2023-01-04T11:48:42.272Z,98183.00
2023-01-04T11:52:45.372Z,98172.00
2023-01-04T11:57:00.547Z,98177.00
2023-01-04T12:01:01.671Z,98163.00
2023-01-04T12:05:13.046Z,98150.00
2023-01-04T12:09:16.787Z,98132.00
2023-01-04T12:13:17.879Z,98145.00
2023-01-04T12:17:22.783Z,98135.00
2023-01-04T12:21:25.869Z,98131.00
2023-01-04T12:25:44.918Z,98132.00
2023-01-04T12:29:58.701Z,98123.00
2023-01-04T12:34:03.659Z,98119.00
2023-01-04T12:38:04.791Z,98107.00
2023-01-04T12:42:17.985Z,98105.00
2023-01-04T12:46:50.654Z,98088.00
2023-01-04T12:51:34.438Z,98095.00
2023-01-04T12:55:42.006Z,98079.00
2023-01-04T12:59:58.561Z,98066.00
2023-01-04T13:04:05.967Z,98056.00
2023-01-04T13:08:14.191Z,98054.00
2023-01-04T13:12:35.809Z,98045.00
2023-01-04T13:16:52.166Z,98054.00
2023-01-04T13:20:54.875Z,98046.00
2023-01-04T13:24:57.860Z,98039.00
2023-01-04T13:29:15.019Z,98033.00
2023-01-04T13:33:28.795Z,98039.00
2023-01-04T13:37:33.040Z,98021.00
2023-01-04T13:41:34.175Z,98004.00
2023-01-04T13:46:06.263Z,98000.00
2023-01-04T13:50:05.722Z,97995.00
2023-01-04T13:54:22.066Z,97992.00
2023-01-04T13:58:25.997Z,97981.00
2023-01-04T14:02:27.190Z,97970.00
2023-01-04T14:06:31.969Z,97960.00
2023-01-04T14:10:33.185Z,97962.00
2023-01-04T14:14:50.049Z,97973.00
2023-01-04T14:18:50.992Z,97989.00
2023-01-04T14:22:55.390Z,97966.00
2023-01-04T14:26:56.360Z,97962.00
2023-01-04T14:31:06.056Z,97964.00
2023-01-04T14:35:10.967Z,97965.00
2023-01-04T14:39:18.871Z,97963.00
2023-01-04T14:43:35.870Z,97967.00
2023-01-04T14:47:36.914Z,97961.00
2023-01-04T14:51:47.851Z,97955.00
2023-01-04T14:55:48.819Z,97971.00
2023-01-04T14:59:49.761Z,97951.00
2023-01-04T15:03:50.918Z,97950.00
2023-01-04T15:07:52.122Z,97957.00
2023-01-04T15:11:54.994Z,97950.00
2023-01-04T15:15:55.993Z,97942.00
2023-01-04T15:19:56.928Z,97945.00
2023-01-04T15:23:58.269Z,97938.00
2023-01-04T15:27:59.394Z,97952.00
2023-01-04T15:32:00.360Z,97950.00
2023-01-04T15:36:04.529Z,97941.00
2023-01-04T15:40:06.128Z,97925.00
2023-01-04T15:44:10.590Z,97920.00
2023-01-04T15:48:12.405Z,97931.00
2023-01-04T15:52:13.916Z,97930.00
2023-01-04T15:56:14.865Z,97935.00
2023-01-04T16:00:16.338Z,97903.00
2023-01-04T16:04:17.297Z,97892.00
2023-01-04T16:08:18.233Z,97903.00
2023-01-04T16:12:38.302Z,97907.00
2023-01-04T16:16:39.311Z,97891.00
2023-01-04T16:20:41.453Z,97899.00
2023-01-04T16:25:09.849Z,97902.00
2023-01-04T16:28:53.750Z,97896.00
2023-01-04T16:32:54.725Z,97892.00
2023-01-04T16:36:55.712Z,97904.00
2023-01-04T16:41:01.233Z,97892.00
2023-01-04T16:45:02.341Z,97902.00
2023-01-04T16:49:12.733Z,97898.00
2023-01-04T16:53:13.702Z,97878.00
2023-01-04T16:57:15.015Z,97893.00
2023-01-04T17:01:25.972Z,97900.00
2023-01-04T17:05:27.157Z,97897.00
2023-01-04T17:09:28.072Z,97900.00
2023-01-04T17:13:29.069Z,97887.00
2023-01-04T17:17:30.187Z,97884.00
2023-01-04T17:21:34.383Z,97890.00
2023-01-04T17:25:34.192Z,97893.00
2023-01-04T17:29:35.131Z,97884.00
2023-01-04T17:33:36.273Z,97881.00
2023-01-04T17:37:37.267Z,97888.00
2023-01-04T17:41:38.961Z,97904.00
2023-01-04T17:45:40.165Z,97882.00
2023-01-04T17:49:41.440Z,97893.00
2023-01-04T17:53:44.394Z,97880.00
2023-01-04T17:57:46.054Z,97879.00
2023-01-04T18:01:47.187Z,97879.00
2023-01-04T18:06:07.151Z,97877.00
2023-01-04T18:09:57.283Z,97856.00
2023-01-04T18:13:58.556Z,97853.00
2023-01-04T18:17:59.518Z,97846.00
2023-01-04T18:22:00.981Z,97860.00
2023-01-04T18:26:02.840Z,97858.00
2023-01-04T18:30:06.364Z,97848.00
2023-01-04T18:34:09.947Z,97859.00
2023-01-04T18:38:10.962Z,97873.00
2023-01-04T18:42:11.964Z,97881.00
2023-01-04T18:46:13.149Z,97874.00
2023-01-04T18:50:16.854Z,97861.00
2023-01-04T18:54:19.891Z,97869.00
2023-01-04T18:58:21.040Z,97889.00
2023-01-04T19:02:22.286Z,97883.00
2023-01-04T19:06:23.563Z,97884.00
2023-01-04T19:10:24.819Z,97891.00
2023-01-04T19:14:25.951Z,97875.00
2023-01-04T19:18:27.940Z,97882.00
2023-01-04T19:22:29.093Z,97881.00
2023-01-04T19:26:30.098Z,97886.00
2023-01-04T19:30:31.383Z,97882.00
2023-01-04T19:34:32.462Z,97893.00
2023-01-04T19:38:33.622Z,97870.00
2023-01-04T19:42:34.602Z,97872.00
2023-01-04T19:46:39.813Z,97888.00
2023-01-04T19:50:40.907Z,97892.00
2023-01-04T19:54:41.966Z,97897.00
2023-01-04T19:58:43.272Z,97918.00
2023-01-04T20:02:44.437Z,97929.00
2023-01-04T20:06:46.124Z,97883.00
2023-01-04T20:10:54.434Z,97867.00
2023-01-04T20:14:55.545Z,97876.00
2023-01-04T20:18:57.316Z,97897.00
2023-01-04T20:22:58.510Z,97914.00
2023-01-04T20:26:59.469Z,97905.00
2023-01-04T20:31:02.807Z,97890.00
2023-01-04T20:35:04.401Z,97895.00
2023-01-04T20:39:05.668Z,97900.00
2023-01-04T20:43:25.157Z,97897.00
2023-01-04T20:47:26.236Z,97896.00
2023-01-04T20:51:29.255Z,97876.00
2023-01-04T20:55:30.510Z,97858.00
2023-01-04T20:59:31.677Z,97887.00
2023-01-04T21:03:34.058Z,97887.00
2023-01-04T21:07:35.177Z,97880.00
2023-01-04T21:11:36.214Z,97878.00
2023-01-04T21:15:38.485Z,97888.00
2023-01-04T21:19:39.655Z,97886.00
2023-01-04T21:23:42.630Z,97882.00
2023-01-04T21:27:44.152Z,97873.00
2023-01-04T21:31:46.631Z,97866.00
2023-01-04T21:35:47.622Z,97856.00
2023-01-04T21:39:48.802Z,97857.00
2023-01-04T21:43:51.460Z,97871.00
2023-01-04T21:47:54.013Z,97862.00
2023-01-04T21:51:55.219Z,97859.00
2023-01-04T21:55:59.047Z,97874.00
2023-01-04T22:00:00.345Z,97865.00
2023-01-04T22:04:02.186Z,97862.00
2023-01-04T22:08:03.589Z,97867.00
2023-01-04T22:12:05.387Z,97857.00
2023-01-04T22:16:09.398Z,97858.00
2023-01-04T22:20:10.935Z,97883.00
2023-01-04T22:24:13.322Z,97866.00
2023-01-04T22:28:14.273Z,97867.00
2023-01-04T22:32:15.296Z,97874.00
2023-01-04T22:36:22.205Z,97871.00
2023-01-04T22:40:19.706Z,97877.00
2023-01-04T22:44:20.824Z,97885.00
2023-01-04T22:48:21.995Z,97895.00
2023-01-04T22:52:23.091Z,97891.00
2023-01-04T22:56:25.416Z,97867.00
2023-01-04T23:00:26.571Z,97861.00
2023-01-04T23:04:27.684Z,97871.00
2023-01-04T23:08:28.606Z,97887.00
2023-01-04T23:12:29.693Z,97871.00
2023-01-04T23:16:33.229Z,97867.00
2023-01-04T23:20:33.819Z,97874.00
2023-01-04T23:24:37.030Z,97886.00
2023-01-04T23:28:38.280Z,97873.00
2023-01-04T23:32:39.479Z,97870.00
2023-01-04T23:36:41.975Z,97859.00
2023-01-04T23:40:47.936Z,97862.00
2023-01-04T23:44:48.896Z,97865.00
2023-01-04T23:48:49.875Z,97859.00
2023-01-04T23:52:50.974Z,97858.00
2023-01-04T23:56:52.365Z,97853.00
